Portada
METAR-TAF:

METAR-TAF

Aeropuertos :

Mount Isa, Australia

latitud: 20-40S, longitud: 139-28E, altitud: 342 m

Observación

El informe se hizo hace 31 minutos, a las 06:00 UTC
Viento 10 kt del este
Temperatura 26°C
Humedad 13%
Presión 1018 hPa
Visibilidad 10 km o más

METAR: YBMA 230600Z AUTO 10010KT 9999 // NCD 26/M05 Q1018 RF00.0/000.0

Hora: 16:31 (06:31 UTC)

Pronóstico

El informe se hizo hace 1 hora y 26 minutos, a las 05:05 UTC
Pronóstico válido del 23 a las 06 UTC al 23 a las 18 UTC
Viento 12 kt del este
Visibilidad 10 km o más
sin nubes por debajo de 1500 m y sin presencia de cumulonimbus.
A partir de las 23 a las 0900 UTC
Viento 5 kt del este
Visibilidad 10 km o más
sin nubes por debajo de 1500 m y sin presencia de cumulonimbus.

TAF: YBMA 230505Z 2306/2318 09012KT CAVOK FM230900 10005KT CAVOK

Observaciones y pronósticos meteorológicos de más de 4000 aeropuertos (mensajes METAR y TAF).

Los puntos amarillos y rojos representan las estaciones disponibles.

Ponga el ratón en el punto deseado para ver el nombre de la estación.

Haga clic para ver las observaciones y los pronósticos meteorológicos.

Para cambiar el mapa : haga clic en los botones verdes con una cruz de color negro para hacer un zoom, en el botón verde con un guión para alejar o en las flechas verdes para mapas adyacentes.


METAR-TAF: